| time (UTC) | temp F | wind direction | speed MPH | gust MPH | rain 1hr in | rain 24hr in | rain mn in | humidity % | barometer mb |
| 20260509230527 | 86 | 347 | 0.0 | 3.0 | 0.00 | 0.27 | 0.27 | 65 | 1007.0 |
| 20260509225527 | 86 | 117 | 2.0 | 4.0 | 0.00 | 0.27 | 0.27 | 65 | 1006.9 |
| 20260509225027 | 86 | 107 | 4.0 | 4.0 | 0.00 | 0.27 | 0.27 | 63 | 1006.9 |
| 20260509224527 | 86 | 156 | 2.0 | 2.0 | 0.00 | 0.27 | 0.27 | 64 | 1007.0 |
| 20260509224027 | 86 | 118 | 0.0 | 3.0 | 0.00 | 0.27 | 0.27 | 64 | 1006.9 |
| 20260509223527 | 86 | 95 | 0.0 | 6.0 | 0.00 | 0.27 | 0.27 | 64 | 1006.9 |
| 20260509223027 | 86 | 101 | 6.0 | 6.0 | 0.00 | 0.27 | 0.27 | 65 | 1006.9 |
| 20260509222527 | 86 | 107 | 0.0 | 3.0 | 0.00 | 0.27 | 0.27 | 65 | 1006.9 |
| 20260509222027 | 85 | 144 | 0.0 | 4.0 | 0.00 | 0.27 | 0.27 | 65 | 1006.8 |
| 20260509221527 | 85 | 96 | 2.0 | 6.0 | 0.00 | 0.27 | 0.27 | 64 | 1006.9 |
| 20260509221027 | 84 | 103 | 3.0 | 6.0 | 0.00 | 0.27 | 0.27 | 65 | 1006.7 |
| 20260509220527 | 83 | 116 | 1.0 | 2.0 | 0.00 | 0.27 | 0.27 | 66 | 1006.6 |
| 20260509220027 | 83 | 173 | 0.0 | 3.0 | 0.00 | 0.27 | 0.27 | 68 | 1006.6 |
| 20260509215527 | 82 | 229 | 2.0 | 3.0 | 0.00 | 0.27 | 0.27 | 69 | 1006.8 |
| 20260509215027 | 81 | 202 | 1.0 | 5.0 | 0.00 | 0.27 | 0.27 | 71 | 1006.8 |
| 20260509214026 | 78 | 251 | 1.0 | 2.0 | 0.00 | 0.27 | 0.27 | 73 | 1006.9 |
| 20260509213527 | 77 | 132 | 1.0 | 4.0 | 0.00 | 0.27 | 0.27 | 74 | 1007.0 |
| 20260509213027 | 76 | 215 | 3.0 | 4.0 | 0.00 | 0.27 | 0.27 | 75 | 1007.1 |
| 20260509212526 | 75 | 195 | 2.0 | 8.0 | 0.01 | 0.27 | 0.27 | 75 | 1007.0 |
| 20260509212027 | 74 | 178 | 2.0 | 8.0 | 0.03 | 0.27 | 0.27 | 76 | 1007.0 |
| 20260509211526 | 73 | 119 | 1.0 | 7.0 | 0.07 | 0.27 | 0.27 | 77 | 1007.2 |
| 20260509210027 | 73 | 232 | 1.0 | 5.0 | 0.24 | 0.27 | 0.27 | 79 | 1007.2 |
| 20260509205526 | 73 | 45 | 0.0 | 1.0 | 0.24 | 0.27 | 0.27 | 80 | 1007.2 |
| 20260509205026 | 72 | 183 | 0.0 | 3.0 | 0.24 | 0.27 | 0.27 | 80 | 1007.2 |
| 20260509204526 | 71 | 125 | 2.0 | 10.0 | 0.24 | 0.27 | 0.27 | 79 | 1007.1 |
| 20260509204026 | 72 | 130 | 7.0 | 10.0 | 0.24 | 0.27 | 0.27 | 78 | 1007.4 |
| 20260509203526 | 72 | 302 | 1.0 | 7.0 | 0.24 | 0.27 | 0.27 | 78 | 1007.5 |
| 20260509203026 | 73 | 230 | 1.0 | 7.0 | 0.24 | 0.27 | 0.27 | 76 | 1007.6 |
| 20260509202526 | 75 | 160 | 4.0 | 7.0 | 0.23 | 0.26 | 0.26 | 75 | 1007.9 |
| 20260509202026 | 77 | 135 | 0.0 | 10.0 | 0.21 | 0.24 | 0.24 | 72 | 1008.7 |
| 20260509201526 | 80 | 130 | 4.0 | 11.0 | 0.17 | 0.20 | 0.20 | 68 | 1008.7 |
| 20260509201025 | 84 | 115 | 6.0 | 11.0 | 0.06 | 0.09 | 0.09 | 71 | 1009.1 |
| 20260509200526 | 87 | 24 | 2.0 | 11.0 | 0.00 | 0.03 | 0.03 | 66 | 1008.5 |
| 20260509200026 | 88 | 5 | 3.0 | 4.0 | 0.00 | 0.03 | 0.03 | 66 | 1008.3 |
| 20260509195526 | 89 | 101 | 3.0 | 4.0 | 0.00 | 0.03 | 0.03 | 67 | 1008.0 |
| 20260509195025 | 89 | 122 | 0.0 | 8.0 | 0.00 | 0.03 | 0.03 | 68 | 1007.9 |
| 20260509194525 | 89 | 155 | 2.0 | 8.0 | 0.00 | 0.03 | 0.03 | 68 | 1007.8 |
| 20260509194025 | 89 | 160 | 1.0 | 4.0 | 0.00 | 0.03 | 0.03 | 68 | 1007.8 |
| 20260509193525 | 89 | 146 | 4.0 | 4.0 | 0.00 | 0.03 | 0.03 | 68 | 1007.9 |
| 20260509192525 | 88 | 222 | 2.0 | 9.0 | 0.00 | 0.03 | 0.03 | 69 | 1008.1 |
| 20260509192025 | 88 | 91 | 3.0 | 9.0 | 0.00 | 0.03 | 0.03 | 69 | 1008.1 |
| 20260509191024 | 88 | 140 | 7.0 | 7.0 | 0.00 | 0.03 | 0.03 | 69 | 1008.3 |
| 20260509190524 | 88 | 155 | 2.0 | 4.0 | 0.00 | 0.03 | 0.03 | 70 | 1008.2 |
| 20260509190024 | 88 | 238 | 0.0 | 4.0 | 0.00 | 0.03 | 0.03 | 71 | 1008.3 |
| 20260509185524 | 88 | 211 | 2.0 | 4.0 | 0.00 | 0.03 | 0.03 | 71 | 1008.4 |
| 20260509184524 | 87 | 333 | 0.0 | 6.0 | 0.00 | 0.03 | 0.03 | 72 | 1008.6 |
| 20260509184024 | 87 | 167 | 1.0 | 6.0 | 0.00 | 0.03 | 0.03 | 72 | 1008.8 |
| 20260509183524 | 87 | 219 | 0.0 | 3.0 | 0.00 | 0.03 | 0.03 | 74 | 1008.9 |
| 20260509182524 | 86 | 115 | 3.0 | 7.0 | 0.00 | 0.03 | 0.03 | 74 | 1009.1 |
| 20260509182024 | 86 | 184 | 1.0 | 3.0 | 0.00 | 0.03 | 0.03 | 75 | 1009.3 |
| 20260509181524 | 85 | 167 | 3.0 | 6.0 | 0.00 | 0.03 | 0.03 | 75 | 1009.3 |
| 20260509181024 | 85 | 119 | 3.0 | 6.0 | 0.00 | 0.03 | 0.03 | 75 | 1009.3 |
| 20260509180023 | 85 | 268 | 2.0 | 4.0 | 0.00 | 0.03 | 0.03 | 76 | 1009.3 |
| 20260509175523 | 85 | 319 | 1.0 | 3.0 | 0.00 | 0.03 | 0.03 | 76 | 1009.4 |
| 20260509175023 | 84 | 284 | 3.0 | 7.0 | 0.00 | 0.03 | 0.03 | 76 | 1009.3 |
| 20260509174523 | 84 | 233 | 1.0 | 7.0 | 0.00 | 0.03 | 0.03 | 76 | 1009.4 |
| 20260509174024 | 84 | 244 | 0.0 | 4.0 | 0.00 | 0.03 | 0.03 | 77 | 1009.7 |
| 20260509173524 | 84 | 330 | 1.0 | 3.0 | 0.00 | 0.03 | 0.03 | 77 | 1009.9 |
| 20260509173023 | 84 | 321 | 2.0 | 3.0 | 0.00 | 0.03 | 0.03 | 77 | 1009.9 |
| 20260509172523 | 84 | 213 | 0.0 | 3.0 | 0.00 | 0.03 | 0.03 | 77 | 1009.9 |
| 20260509172023 | 83 | 207 | 2.0 | 3.0 | 0.00 | 0.03 | 0.03 | 78 | 1009.8 |
| 20260509171523 | 83 | 180 | 1.0 | 3.0 | 0.00 | 0.03 | 0.03 | 78 | 1009.7 |
| 20260509170523 | 82 | 306 | 2.0 | 3.0 | 0.00 | 0.03 | 0.03 | 78 | 1009.7 |
| 20260509170023 | 82 | 154 | 1.0 | 3.0 | 0.00 | 0.03 | 0.03 | 79 | 1009.8 |
| 20260509165523 | 82 | 265 | 2.0 | 6.0 | 0.00 | 0.03 | 0.03 | 79 | 1009.9 |
| 20260509164523 | 81 | 147 | 3.0 | 6.0 | 0.00 | 0.03 | 0.03 | 79 | 1010.0 |
| 20260509163523 | 80 | 187 | 3.0 | 9.0 | 0.00 | 0.03 | 0.03 | 80 | 1010.1 |
| 20260509163023 | 80 | 136 | 1.0 | 6.0 | 0.00 | 0.03 | 0.03 | 80 | 1010.0 |
| 20260509162522 | 80 | 184 | 1.0 | 2.0 | 0.00 | 0.03 | 0.03 | 80 | 1010.1 |
| 20260509161523 | 79 | 284 | 1.0 | 5.0 | 0.00 | 0.03 | 0.03 | 80 | 1009.9 |
| 20260509160522 | 79 | 188 | 1.0 | 4.0 | 0.00 | 0.03 | 0.03 | 80 | 1009.9 |
| 20260509155022 | 78 | 141 | 7.0 | 7.0 | 0.00 | 0.03 | 0.03 | 79 | 1009.8 |
| 20260509154022 | 77 | 92 | 0.0 | 4.0 | 0.00 | 0.03 | 0.03 | 79 | 1009.8 |
| 20260509153522 | 77 | 147 | 2.0 | 4.0 | 0.00 | 0.03 | 0.03 | 79 | 1009.8 |
| 20260509153022 | 77 | 119 | 3.0 | 5.0 | 0.00 | 0.03 | 0.03 | 79 | 1009.9 |
| 20260509152522 | 77 | 139 | 2.0 | 5.0 | 0.00 | 0.03 | 0.03 | 78 | 1009.9 |
| 20260509152022 | 77 | 186 | 0.0 | 3.0 | 0.00 | 0.03 | 0.03 | 78 | 1009.9 |
| 20260509151522 | 77 | 174 | 1.0 | 5.0 | 0.00 | 0.03 | 0.03 | 77 | 1010.0 |
| 20260509151022 | 77 | 113 | 2.0 | 5.0 | 0.00 | 0.03 | 0.03 | 77 | 1010.0 |
| 20260509150522 | 76 | 186 | 1.0 | 4.0 | 0.00 | 0.03 | 0.03 | 77 | 1009.9 |
| 20260509150022 | 76 | 116 | 2.0 | 4.0 | 0.01 | 0.03 | 0.03 | 76 | 1010.0 |
| 20260509145522 | 76 | 218 | 2.0 | 4.0 | 0.01 | 0.03 | 0.03 | 76 | 1009.9 |
| 20260509144522 | 75 | 237 | 1.0 | 7.0 | 0.01 | 0.03 | 0.03 | 76 | 1009.8 |
| 20260509143522 | 75 | 95 | 4.0 | 8.0 | 0.01 | 0.03 | 0.03 | 78 | 1009.8 |
| 20260509143022 | 75 | 178 | 0.0 | 8.0 | 0.01 | 0.03 | 0.03 | 78 | 1009.8 |
| 20260509142522 | 75 | 173 | 2.0 | 6.0 | 0.01 | 0.03 | 0.03 | 78 | 1009.3 |
| 20260509142022 | 75 | 205 | 1.0 | 7.0 | 0.01 | 0.03 | 0.03 | 78 | 1009.3 |
| 20260509141021 | 74 | 223 | 2.0 | 5.0 | 0.01 | 0.03 | 0.03 | 78 | 1009.6 |
| 20260509140521 | 74 | 145 | 1.0 | 1.0 | 0.01 | 0.03 | 0.03 | 78 | 1009.8 |
| 20260509140021 | 74 | 114 | 0.0 | 2.0 | 0.00 | 0.02 | 0.02 | 78 | 1009.9 |
| 20260509135521 | 74 | 114 | 1.0 | 2.0 | 0.00 | 0.02 | 0.02 | 78 | 1009.9 |
| 20260509135021 | 74 | 114 | 0.0 | 0.0 | 0.00 | 0.02 | 0.02 | 78 | 1009.9 |
| 20260509134521 | 74 | 114 | 0.0 | 0.0 | 0.00 | 0.02 | 0.02 | 78 | 1009.9 |
| 20260509134021 | 74 | 114 | 0.0 | 0.0 | 0.00 | 0.02 | 0.02 | 78 | 1009.9 |
| 20260509133021 | 74 | 114 | 0.0 | 0.0 | 0.00 | 0.02 | 0.02 | 79 | 1009.9 |
| 20260509132521 | 74 | 114 | 0.0 | 0.0 | 0.00 | 0.02 | 0.02 | 79 | 1009.9 |
| 20260509132021 | 74 | 114 | 0.0 | 0.0 | 0.00 | 0.02 | 0.02 | 79 | 1010.0 |
| 20260509131521 | 74 | 114 | 0.0 | 1.0 | 0.00 | 0.02 | 0.02 | 79 | 1009.9 |
| 20260509131021 | 74 | 114 | 0.0 | 1.0 | 0.00 | 0.02 | 0.02 | 79 | 1009.8 |
| 20260509130520 | 74 | 121 | 0.0 | 0.0 | 0.00 | 0.02 | 0.02 | 79 | 1009.7 |
| 20260509125521 | 74 | 122 | 0.0 | 1.0 | 0.00 | 0.02 | 0.02 | 79 | 1009.5 |
| 20260509125020 | 74 | 347 | 0.0 | 0.0 | 0.00 | 0.02 | 0.02 | 79 | 1009.2 |
| 20260509124520 | 74 | 347 | 0.0 | 0.0 | 0.00 | 0.02 | 0.02 | 79 | 1009.1 |
| 20260509124020 | 74 | 347 | 0.0 | 0.0 | 0.00 | 0.02 | 0.02 | 79 | 1009.2 |
| 20260509123020 | 74 | 68 | 0.0 | 0.0 | 0.00 | 0.02 | 0.02 | 79 | 1009.3 |
| 20260509122521 | 74 | 68 | 0.0 | 0.0 | 0.00 | 0.02 | 0.02 | 79 | 1009.3 |
| 20260509122020 | 74 | 68 | 0.0 | 0.0 | 0.00 | 0.02 | 0.02 | 79 | 1009.4 |
| 20260509121520 | 74 | 68 | 0.0 | 0.0 | 0.00 | 0.02 | 0.02 | 79 | 1009.4 |
| 20260509121020 | 74 | 68 | 0.0 | 0.0 | 0.00 | 0.02 | 0.02 | 79 | 1009.6 |
| 20260509120020 | 74 | 68 | 0.0 | 0.0 | 0.00 | 0.02 | 0.02 | 80 | 1009.5 |
| 20260509115520 | 74 | 68 | 0.0 | 0.0 | 0.00 | 0.02 | 0.02 | 80 | 1009.5 |
| 20260509115020 | 74 | 68 | 0.0 | 0.0 | 0.00 | 0.02 | 0.02 | 80 | 1009.6 |
| 20260509114520 | 74 | 68 | 0.0 | 1.0 | 0.00 | 0.02 | 0.02 | 80 | 1009.7 |
| 20260509113020 | 74 | 41 | 0.0 | 1.0 | 0.00 | 0.02 | 0.02 | 80 | 1010.1 |
| 20260509112520 | 74 | 46 | 0.0 | 0.0 | 0.00 | 0.02 | 0.02 | 80 | 1009.9 |
| 20260509112019 | 74 | 46 | 0.0 | 0.0 | 0.00 | 0.02 | 0.02 | 80 | 1010.0 |
| 20260509111520 | 74 | 46 | 0.0 | 1.0 | 0.00 | 0.02 | 0.02 | 80 | 1010.2 |
| 20260509111020 | 74 | 46 | 0.0 | 2.0 | 0.00 | 0.02 | 0.02 | 80 | 1010.2 |
| 20260509110520 | 74 | 46 | 0.0 | 4.0 | 0.00 | 0.02 | 0.02 | 80 | 1010.2 |
| 20260509110019 | 74 | 31 | 1.0 | 4.0 | 0.00 | 0.02 | 0.02 | 80 | 1010.2 |
| 20260509105519 | 74 | 59 | 0.0 | 2.0 | 0.00 | 0.02 | 0.02 | 80 | 1010.4 |
| 20260509105019 | 74 | 80 | 0.0 | 2.0 | 0.00 | 0.02 | 0.02 | 80 | 1010.4 |
| 20260509104519 | 74 | 70 | 2.0 | 2.0 | 0.00 | 0.02 | 0.02 | 80 | 1010.5 |
| 20260509103519 | 74 | 73 | 0.0 | 2.0 | 0.00 | 0.02 | 0.02 | 81 | 1010.4 |
| 20260509103019 | 74 | 5 | 0.0 | 2.0 | 0.00 | 0.02 | 0.02 | 81 | 1010.4 |
| 20260509102519 | 74 | 32 | 0.0 | 1.0 | 0.00 | 0.02 | 0.02 | 81 | 1010.4 |
| 20260509102019 | 74 | 32 | 0.0 | 0.0 | 0.00 | 0.02 | 0.02 | 81 | 1010.1 |
| 20260509101519 | 74 | 32 | 0.0 | 0.0 | 0.00 | 0.02 | 0.02 | 81 | 1009.9 |
| 20260509101019 | 74 | 32 | 0.0 | 0.0 | 0.00 | 0.02 | 0.02 | 81 | 1009.6 |
| 20260509100019 | 74 | 32 | 1.0 | 1.0 | 0.01 | 0.02 | 0.02 | 81 | 1009.3 |
| 20260509095519 | 74 | 32 | 0.0 | 0.0 | 0.01 | 0.02 | 0.02 | 81 | 1009.3 |
| 20260509095019 | 74 | 32 | 0.0 | 0.0 | 0.01 | 0.02 | 0.02 | 81 | 1009.2 |
| 20260509094018 | 74 | 32 | 0.0 | 0.0 | 0.02 | 0.02 | 0.02 | 81 | 1009.2 |
| 20260509093519 | 74 | 32 | 0.0 | 0.0 | 0.02 | 0.02 | 0.02 | 81 | 1009.2 |
| 20260509093018 | 74 | 32 | 0.0 | 0.0 | 0.02 | 0.02 | 0.02 | 81 | 1009.2 |
| 20260509092518 | 74 | 32 | 0.0 | 0.0 | 0.02 | 0.02 | 0.02 | 81 | 1009.3 |
| 20260509092018 | 74 | 32 | 0.0 | 0.0 | 0.02 | 0.02 | 0.02 | 81 | 1009.1 |
| 20260509090518 | 74 | 32 | 0.0 | 0.0 | 0.02 | 0.02 | 0.02 | 81 | 1009.0 |
| 20260509090017 | 74 | 32 | 0.0 | 0.0 | 0.01 | 0.01 | 0.01 | 81 | 1009.0 |
| 20260509085518 | 74 | 32 | 0.0 | 0.0 | 0.01 | 0.01 | 0.01 | 81 | 1009.1 |
| 20260509085018 | 74 | 32 | 0.0 | 0.0 | 0.01 | 0.01 | 0.01 | 81 | 1009.1 |
| 20260509084518 | 74 | 32 | 0.0 | 0.0 | 0.01 | 0.01 | 0.01 | 81 | 1009.2 |
| 20260509084017 | 74 | 32 | 0.0 | 2.0 | 0.00 | 0.00 | 0.00 | 81 | 1009.2 |
| 20260509083518 | 74 | 17 | 0.0 | 2.0 | 0.00 | 0.00 | 0.00 | 81 | 1009.3 |
| 20260509083017 | 75 | 82 | 0.0 | 1.0 | 0.00 | 0.00 | 0.00 | 81 | 1009.4 |
| 20260509082517 | 75 | 101 | 0.0 | 1.0 | 0.00 | 0.00 | 0.00 | 82 | 1009.5 |
| 20260509082017 | 75 | 90 | 0.0 | 1.0 | 0.00 | 0.00 | 0.00 | 82 | 1009.6 |
| 20260509081017 | 75 | 16 | 0.0 | 1.0 | 0.00 | 0.00 | 0.00 | 82 | 1009.6 |
| 20260509075517 | 75 | 115 | 2.0 | 3.0 | 0.00 | 0.00 | 0.00 | 82 | 1009.2 |
| 20260509075017 | 75 | 133 | 0.0 | 2.0 | 0.00 | 0.00 | 0.00 | 82 | 1009.2 |
| 20260509074517 | 75 | 133 | 0.0 | 3.0 | 0.00 | 0.00 | 0.00 | 82 | 1009.1 |
| 20260509074017 | 75 | 115 | 2.0 | 3.0 | 0.00 | 0.00 | 0.00 | 82 | 1009.2 |
| 20260509073516 | 74 | 193 | 0.0 | 1.0 | 0.00 | 0.00 | 0.00 | 82 | 1009.4 |
| 20260509073017 | 74 | 193 | 0.0 | 1.0 | 0.00 | 0.00 | 0.00 | 82 | 1009.5 |
| 20260509072016 | 74 | 252 | 0.0 | 0.0 | 0.00 | 0.00 | 0.00 | 82 | 1009.3 |
| 20260509071516 | 74 | 252 | 0.0 | 0.0 | 0.00 | 0.00 | 0.00 | 82 | 1009.5 |
| 20260509071016 | 74 | 252 | 0.0 | 0.0 | 0.00 | 0.00 | 0.00 | 82 | 1009.6 |
| 20260509070516 | 74 | 252 | 0.0 | 0.0 | 0.00 | 0.00 | 0.00 | 82 | 1009.7 |
| 20260509070016 | 74 | 252 | 0.0 | 3.0 | 0.00 | 0.00 | 0.00 | 82 | 1009.7 |
| 20260509065516 | 74 | 300 | 0.0 | 3.0 | 0.00 | 0.00 | 0.00 | 82 | 1009.4 |
| 20260509065016 | 74 | 165 | 0.0 | 2.0 | 0.00 | 0.00 | 0.00 | 82 | 1009.2 |
| 20260509064516 | 74 | 128 | 1.0 | 3.0 | 0.00 | 0.00 | 0.00 | 82 | 1009.3 |
| 20260509064016 | 74 | 178 | 0.0 | 3.0 | 0.00 | 0.00 | 0.00 | 82 | 1009.2 |
| 20260509063516 | 74 | 126 | 1.0 | 2.0 | 0.00 | 0.00 | 0.00 | 82 | 1009.2 |
| 20260509063016 | 74 | 127 | 0.0 | 2.0 | 0.00 | 0.00 | 0.00 | 82 | 1009.2 |
| 20260509062516 | 74 | 192 | 1.0 | 4.0 | 0.00 | 0.00 | 0.00 | 82 | 1009.4 |
| 20260509062016 | 74 | 148 | 3.0 | 4.0 | 0.00 | 0.00 | 0.00 | 82 | 1009.4 |
| 20260509061516 | 74 | 182 | 1.0 | 3.0 | 0.00 | 0.00 | 0.00 | 82 | 1009.3 |
| 20260509061016 | 74 | 140 | 1.0 | 6.0 | 0.00 | 0.00 | 0.00 | 82 | 1009.2 |
| 20260509060516 | 74 | 118 | 0.0 | 6.0 | 0.00 | 0.00 | 0.00 | 82 | 1009.1 |
| 20260509060015 | 74 | 215 | 1.0 | 4.0 | 0.00 | 0.00 | 0.00 | 82 | 1009.1 |
| 20260509055516 | 74 | 188 | 3.0 | 5.0 | 0.00 | 0.00 | 0.00 | 82 | 1009.1 |
| 20260509055016 | 74 | 150 | 2.0 | 5.0 | 0.00 | 0.00 | 0.00 | 82 | 1009.2 |
| 20260509054515 | 74 | 139 | 3.0 | 5.0 | 0.00 | 0.00 | 0.00 | 82 | 1009.3 |
| 20260509054015 | 74 | 176 | 2.0 | 3.0 | 0.00 | 0.00 | 0.00 | 82 | 1009.3 |
| 20260509053515 | 74 | 133 | 2.0 | 3.0 | 0.00 | 0.00 | 0.00 | 82 | 1009.3 |
| 20260509053015 | 74 | 123 | 2.0 | 3.0 | 0.00 | 0.00 | 0.00 | 82 | 1009.3 |
| 20260509052515 | 74 | 198 | 0.0 | 2.0 | 0.00 | 0.00 | 0.00 | 82 | 1009.1 |
| 20260509052015 | 74 | 171 | 2.0 | 2.0 | 0.00 | 0.00 | 0.00 | 82 | 1009.0 |
| 20260509051515 | 74 | 213 | 0.0 | 2.0 | 0.00 | 0.00 | 0.00 | 82 | 1008.8 |
| 20260509051015 | 74 | 153 | 2.0 | 2.0 | 0.00 | 0.00 | 0.00 | 82 | 1008.8 |
| 20260509050515 | 74 | 175 | 0.0 | 2.0 | 0.00 | 0.00 | 0.00 | 82 | 1008.9 |
| 20260509050015 | 74 | 175 | 0.0 | 2.0 | 0.00 | 0.00 | 0.00 | 82 | 1008.9 |
| 20260509045015 | 74 | 202 | 0.0 | 2.0 | 0.00 | 0.00 | 0.00 | 82 | 1008.8 |
| 20260509044515 | 74 | 157 | 0.0 | 2.0 | 0.00 | 0.00 | 0.00 | 81 | 1008.8 |
| 20260509044015 | 74 | 162 | 0.0 | 2.0 | 0.00 | 0.00 | 0.00 | 81 | 1008.7 |
| 20260509043515 | 75 | 165 | 0.0 | 0.0 | 0.00 | 0.00 | 0.00 | 81 | 1008.8 |
| 20260509043015 | 75 | 165 | 0.0 | 2.0 | 0.00 | 0.00 | 0.00 | 81 | 1008.9 |
| 20260509042514 | 75 | 165 | 0.0 | 2.0 | 0.00 | 0.00 | 0.00 | 81 | 1008.9 |
| 20260509042015 | 75 | 177 | 0.0 | 2.0 | 0.00 | 0.00 | 0.00 | 81 | 1008.8 |
| 20260509041514 | 75 | 161 | 1.0 | 2.0 | 0.00 | 0.00 | 0.00 | 81 | 1009.0 |
| 20260509041014 | 75 | 200 | 0.0 | 1.0 | 0.00 | 0.00 | 0.00 | 81 | 1009.2 |
| 20260509040514 | 75 | 200 | 0.0 | 1.0 | 0.00 | 0.00 | 0.00 | 81 | 1009.2 |
| 20260509035514 | 75 | 130 | 0.0 | 0.0 | 0.00 | 0.00 | 0.00 | 81 | 1009.1 |
| 20260509035014 | 76 | 130 | 0.0 | 0.0 | 0.00 | 0.00 | 0.00 | 80 | 1009.1 |
| 20260509034514 | 76 | 130 | 0.0 | 0.0 | 0.00 | 0.00 | 0.00 | 80 | 1009.1 |
| 20260509034014 | 76 | 130 | 0.0 | 0.0 | 0.00 | 0.00 | 0.00 | 80 | 1008.9 |
| 20260509033514 | 76 | 130 | 0.0 | 0.0 | 0.00 | 0.00 | 0.00 | 80 | 1009.0 |
| 20260509033014 | 76 | 130 | 0.0 | 1.0 | 0.00 | 0.00 | 0.00 | 80 | 1008.9 |
| 20260509032514 | 76 | 130 | 0.0 | 3.0 | 0.00 | 0.00 | 0.00 | 80 | 1008.9 |
| 20260509032014 | 76 | 121 | 2.0 | 3.0 | 0.00 | 0.00 | 0.00 | 80 | 1008.8 |
| 20260509031514 | 76 | 157 | 1.0 | 3.0 | 0.00 | 0.00 | 0.00 | 80 | 1008.7 |
| 20260509031014 | 77 | 205 | 0.0 | 3.0 | 0.00 | 0.00 | 0.00 | 80 | 1008.7 |
| 20260509030514 | 77 | 130 | 0.0 | 4.0 | 0.00 | 0.00 | 0.00 | 80 | 1008.6 |
| 20260509025514 | 77 | 151 | 0.0 | 2.0 | 0.00 | 0.00 | 0.00 | 80 | 1008.6 |
| 20260509025014 | 77 | 152 | 0.0 | 2.0 | 0.00 | 0.00 | 0.00 | 79 | 1008.6 |
| 20260509024514 | 77 | 157 | 0.0 | 1.0 | 0.00 | 0.00 | 0.00 | 79 | 1008.5 |
| 20260509024014 | 77 | 129 | 0.0 | 0.0 | 0.00 | 0.00 | 0.00 | 79 | 1008.6 |
| 20260509023513 | 77 | 105 | 0.0 | 0.0 | 0.00 | 0.00 | 0.00 | 79 | 1008.5 |
| 20260509022514 | 77 | 105 | 1.0 | 2.0 | 0.00 | 0.00 | 0.00 | 79 | 1008.4 |
| 20260509022014 | 77 | 105 | 0.0 | 2.0 | 0.00 | 0.00 | 0.00 | 79 | 1008.2 |
| 20260509021014 | 78 | 190 | 2.0 | 6.0 | 0.00 | 0.00 | 0.00 | 78 | 1008.0 |
| 20260509020514 | 78 | 150 | 1.0 | 2.0 | 0.00 | 0.00 | 0.00 | 78 | 1007.8 |
| 20260509020013 | 78 | 123 | 0.0 | 3.0 | 0.00 | 0.00 | 0.00 | 78 | 1007.7 |
| 20260509015513 | 78 | 96 | 0.0 | 4.0 | 0.00 | 0.00 | 0.00 | 78 | 1007.6 |
| 20260509015013 | 78 | 101 | 0.0 | 4.0 | 0.00 | 0.00 | 0.00 | 78 | 1007.6 |
| 20260509014514 | 78 | 154 | 1.0 | 3.0 | 0.00 | 0.00 | 0.00 | 78 | 1007.7 |
| 20260509013513 | 78 | 138 | 5.0 | 5.0 | 0.00 | 0.00 | 0.00 | 77 | 1007.7 |
| 20260509012513 | 78 | 124 | 2.0 | 2.0 | 0.00 | 0.00 | 0.00 | 77 | 1007.8 |
| 20260509012013 | 78 | 102 | 1.0 | 8.0 | 0.00 | 0.00 | 0.00 | 77 | 1007.7 |
| 20260509011513 | 78 | 172 | 5.0 | 8.0 | 0.00 | 0.00 | 0.00 | 77 | 1007.7 |
| 20260509011013 | 79 | 98 | 2.0 | 6.0 | 0.00 | 0.00 | 0.00 | 77 | 1007.7 |
| 20260509010512 | 79 | 117 | 0.0 | 2.0 | 0.00 | 0.00 | 0.00 | 77 | 1007.6 |
| 20260509010013 | 79 | 74 | 1.0 | 4.0 | 0.00 | 0.00 | 0.00 | 77 | 1007.6 |
| 20260509005512 | 79 | 121 | 1.0 | 4.0 | 0.00 | 0.00 | 0.00 | 76 | 1007.6 |
| 20260509005013 | 79 | 201 | 4.0 | 4.0 | 0.00 | 0.00 | 0.00 | 76 | 1007.5 |
| 20260509004013 | 79 | 122 | 1.0 | 6.0 | 0.00 | 0.00 | 0.00 | 76 | 1007.5 |
| 20260509003012 | 79 | 110 | 6.0 | 6.0 | 0.00 | 0.00 | 0.00 | 76 | 1007.5 |
| 20260509002512 | 79 | 130 | 3.0 | 3.0 | 0.00 | 0.00 | 0.00 | 75 | 1007.5 |
| 20260509002012 | 79 | 164 | 0.0 | 3.0 | 0.00 | 0.00 | 0.00 | 75 | 1007.6 |
| 20260509001012 | 79 | 133 | 0.0 | 2.0 | 0.00 | 0.00 | 0.00 | 75 | 1007.6 |
| 20260509000512 | 80 | 141 | 0.0 | 3.0 | 0.00 | 0.00 | 0.00 | 75 | 1007.7 |
| 20260509000012 | 80 | 109 | 2.0 | 4.0 | 0.00 | 0.00 | 0.00 | 75 | 1007.6 |
| 20260508235512 | 80 | 196 | 2.0 | 4.0 | 0.00 | 0.00 | 0.00 | 74 | 1007.5 |
| 20260508235012 | 80 | 192 | 2.0 | 3.0 | 0.00 | 0.00 | 0.00 | 74 | 1007.5 |
| 20260508234512 | 80 | 125 | 1.0 | 2.0 | 0.00 | 0.00 | 0.00 | 74 | 1007.5 |
| 20260508234012 | 80 | 172 | 2.0 | 5.0 | 0.00 | 0.00 | 0.00 | 74 | 1007.6 |
| 20260508233512 | 81 | 119 | 1.0 | 5.0 | 0.00 | 0.00 | 0.00 | 74 | 1007.5 |
| 20260508233012 | 81 | 120 | 2.0 | 5.0 | 0.00 | 0.00 | 0.00 | 74 | 1007.5 |
| 20260508232512 | 81 | 168 | 1.0 | 8.0 | 0.00 | 0.00 | 0.00 | 74 | 1007.5 |
| 20260508232011 | 81 | 254 | 2.0 | 8.0 | 0.00 | 0.00 | 0.00 | 74 | 1007.6 |
| 20260508231512 | 81 | 133 | 1.0 | 4.0 | 0.00 | 0.00 | 0.00 | 73 | 1007.6 |